Terminal Aerodrome Forecast
Issued by NWS

Current Version | Previous Version | Text Only | Print | Product List | Glossary On
Versions: 1 2 3 4 5 6 7 8 9 10 11 12 13
004
FTUS42 KMLB 280536
TAFSUA
TAF
KSUA 280536Z 2806/2906 25004KT P6SM FEW020 FEW120
     FM281400 25006KT P6SM SCT025 SCT250
     FM281900 13007KT P6SM VCTS SCT040CB SCT100
     FM290100 24005KT P6SM SCT060 BKN120=

USA.gov is the U.S. government's official web portal to all federal, state and local government web resources and services.